PWSweather.com
Personal Weather Stations
Station Observations
EMMBROOK1
Emmbrook, WokinghamGB

EmmbrookWokinghamGB

Lat: 51.42698, Lon: -0.850575

Elevation: 144

Station Type: WH1081

http://www.wokinghamweather.co.uk

High Low Average
Temperature 45.5°F7.5°C 41.7°F5.4°C 43.3°F6.3°C
Dew Point 43.0°F6.1°C 38.0°F3.3°C 40.4°F4.7°C
Winds 6.6 mph 10.6 kmh Calm Calm 2.0 mph SE3.2 kmh SE
Wind Gusts 13.0 mph20.9 kmh -- 4.0 mph6.4 kmh
Humidity 92% 84% 89%
Pressure 30.32 in1026.8 mb 30.20 in1022.7 mb -
Precipitation 0.02 in0.5 mm - -
Hour Temp Dew Point Humidity Winds Wind Gusts Pressure Precip Precip Rate Daily Precip Total
12:00 AM 42.8°F6.0°C 39.2°F4.0°C 87% 0.1 mph N0.2 kmh N 0.7 mph1.1 kmh 30.28 in1025.4 mb 0.00 in0.0 mm 0.00 in0.0 mm 0.00 in0.0 mm
12:15 AM 42.6°F5.9°C 39.3°F4.1°C 88% Calm Calm -- 30.28 in1025.4 mb 0.00 in0.0 mm 0.00 in0.0 mm 0.00 in0.0 mm
12:30 AM 42.6°F5.9°C 39.3°F4.1°C 88% Calm Calm -- 30.28 in1025.4 mb 0.00 in0.0 mm 0.00 in0.0 mm 0.00 in0.0 mm
12:45 AM 42.6°F5.9°C 39.3°F4.1°C 88% Calm Calm -- 30.29 in1025.7 mb 0.00 in0.0 mm 0.00 in0.0 mm 0.00 in0.0 mm
01:00 AM 42.6°F5.9°C 39.6°F4.2°C 89% Calm Calm -- 30.28 in1025.4 mb 0.00 in0.0 mm 0.00 in0.0 mm 0.00 in0.0 mm
01:15 AM 42.6°F5.9°C 39.6°F4.2°C 89% Calm Calm -- 30.28 in1025.4 mb 0.00 in0.0 mm 0.00 in0.0 mm 0.00 in0.0 mm
01:30 AM 42.6°F5.9°C 39.6°F4.2°C 89% Calm Calm -- 30.27 in1025.1 mb 0.00 in0.0 mm 0.00 in0.0 mm 0.00 in0.0 mm
01:45 AM 42.6°F5.9°C 39.6°F4.2°C 89% Calm Calm -- 30.28 in1025.4 mb 0.00 in0.0 mm 0.00 in0.0 mm 0.00 in0.0 mm
02:00 AM 42.8°F6.0°C 39.8°F4.3°C 89% 0.6 mph SW1.0 kmh SW 1.6 mph2.6 kmh 30.29 in1025.7 mb 0.00 in0.0 mm 0.00 in0.0 mm 0.00 in0.0 mm
02:15 AM 42.8°F6.0°C 39.8°F4.3°C 89% 1.4 mph WSW2.3 kmh WSW 3.1 mph5.0 kmh 30.30 in1026.1 mb 0.00 in0.0 mm 0.00 in0.0 mm 0.00 in0.0 mm
02:30 AM 42.8°F6.0°C 39.8°F4.3°C 89% 1.1 mph WSW1.8 kmh WSW 2.2 mph3.5 kmh 30.30 in1026.1 mb 0.00 in0.0 mm 0.00 in0.0 mm 0.00 in0.0 mm
02:45 AM 42.8°F6.0°C 39.8°F4.3°C 89% 0.6 mph WSW1.0 kmh WSW 1.6 mph2.6 kmh 30.30 in1026.1 mb 0.00 in0.0 mm 0.00 in0.0 mm 0.00 in0.0 mm
03:00 AM 42.8°F6.0°C 39.8°F4.3°C 89% 1.4 mph SW2.3 kmh SW 2.2 mph3.5 kmh 30.30 in1026.1 mb 0.00 in0.0 mm 0.00 in0.0 mm 0.00 in0.0 mm
03:15 AM 42.8°F6.0°C 39.8°F4.3°C 89% 1.7 mph WSW2.7 kmh WSW 2.2 mph3.5 kmh 30.30 in1026.1 mb 0.00 in0.0 mm 0.00 in0.0 mm 0.00 in0.0 mm
03:30 AM 42.8°F6.0°C 39.8°F4.3°C 89% 1.1 mph WSW1.8 kmh WSW 2.2 mph3.5 kmh 30.30 in1026.1 mb 0.00 in0.0 mm 0.00 in0.0 mm 0.00 in0.0 mm
03:45 AM 42.8°F6.0°C 39.8°F4.3°C 89% 1.0 mph NW1.6 kmh NW 2.2 mph3.5 kmh 30.30 in1026.1 mb 0.00 in0.0 mm 0.00 in0.0 mm 0.00 in0.0 mm
04:00 AM 42.8°F6.0°C 39.8°F4.3°C 89% 1.3 mph WNW2.1 kmh WNW 2.2 mph3.5 kmh 30.30 in1026.1 mb 0.00 in0.0 mm 0.00 in0.0 mm 0.00 in0.0 mm
04:15 AM 42.8°F6.0°C 39.8°F4.3°C 89% 0.5 mph NW0.8 kmh NW 2.2 mph3.5 kmh 30.30 in1026.1 mb 0.00 in0.0 mm 0.00 in0.0 mm 0.00 in0.0 mm
04:30 AM 42.8°F6.0°C 39.8°F4.3°C 89% 0.6 mph WSW1.0 kmh WSW 1.6 mph2.6 kmh 30.30 in1026.1 mb 0.00 in0.0 mm 0.00 in0.0 mm 0.00 in0.0 mm
04:45 AM 42.6°F5.9°C 39.9°F4.4°C 90% 0.4 mph NNW0.6 kmh NNW 0.7 mph1.1 kmh 30.29 in1025.7 mb 0.00 in0.0 mm 0.00 in0.0 mm 0.00 in0.0 mm
05:00 AM 42.6°F5.9°C 39.9°F4.4°C 90% 0.3 mph E0.5 kmh E 0.7 mph1.1 kmh 30.29 in1025.7 mb 0.00 in0.0 mm 0.00 in0.0 mm 0.00 in0.0 mm
05:15 AM 42.6°F5.9°C 39.9°F4.4°C 90% 0.6 mph WSW1.0 kmh WSW 1.6 mph2.6 kmh 30.29 in1025.7 mb 0.00 in0.0 mm 0.00 in0.0 mm 0.00 in0.0 mm
05:30 AM 42.6°F5.9°C 39.9°F4.4°C 90% Calm Calm -- 30.29 in1025.7 mb 0.00 in0.0 mm 0.00 in0.0 mm 0.00 in0.0 mm
05:45 AM 42.4°F5.8°C 39.7°F4.3°C 90% 0.3 mph WSW0.5 kmh WSW 1.6 mph2.6 kmh 30.30 in1026.1 mb 0.00 in0.0 mm 0.00 in0.0 mm 0.00 in0.0 mm
06:00 AM 42.4°F5.8°C 39.7°F4.3°C 90% 0.1 mph W0.2 kmh W 0.7 mph1.1 kmh 30.30 in1026.1 mb 0.00 in0.0 mm 0.00 in0.0 mm 0.00 in0.0 mm
06:15 AM 42.4°F5.8°C 39.7°F4.3°C 90% 0.4 mph SW0.6 kmh SW 1.6 mph2.6 kmh 30.30 in1026.1 mb 0.00 in0.0 mm 0.00 in0.0 mm 0.00 in0.0 mm
06:30 AM 42.4°F5.8°C 39.7°F4.3°C 90% 0.3 mph NW0.5 kmh NW 1.6 mph2.6 kmh 30.30 in1026.1 mb 0.00 in0.0 mm 0.00 in0.0 mm 0.00 in0.0 mm
06:45 AM 42.3°F5.7°C 39.8°F4.3°C 91% Calm Calm 0.7 mph1.1 kmh 30.30 in1026.1 mb 0.00 in0.0 mm 0.00 in0.0 mm 0.00 in0.0 mm
07:00 AM 42.3°F5.7°C 39.8°F4.3°C 91% 0.4 mph NE0.6 kmh NE 1.6 mph2.6 kmh 30.30 in1026.1 mb 0.00 in0.0 mm 0.00 in0.0 mm 0.00 in0.0 mm
07:15 AM 42.3°F5.7°C 39.8°F4.3°C 91% 0.5 mph NE0.8 kmh NE 1.6 mph2.6 kmh 30.30 in1026.1 mb 0.00 in0.0 mm 0.00 in0.0 mm 0.00 in0.0 mm
07:30 AM 42.3°F5.7°C 39.8°F4.3°C 91% 0.4 mph S0.6 kmh S 1.6 mph2.6 kmh 30.30 in1026.1 mb 0.00 in0.0 mm 0.00 in0.0 mm 0.00 in0.0 mm
07:45 AM 42.1°F5.6°C 39.6°F4.2°C 91% 0.4 mph SSE0.6 kmh SSE 1.6 mph2.6 kmh 30.30 in1026.1 mb 0.00 in0.0 mm 0.00 in0.0 mm 0.00 in0.0 mm
08:00 AM 41.9°F5.5°C 39.5°F4.2°C 91% 0.2 mph S0.3 kmh S 0.7 mph1.1 kmh 30.30 in1026.1 mb 0.00 in0.0 mm 0.00 in0.0 mm 0.00 in0.0 mm
08:15 AM 41.7°F5.4°C 39.3°F4.1°C 91% Calm Calm -- 30.30 in1026.1 mb 0.00 in0.0 mm 0.00 in0.0 mm 0.00 in0.0 mm
08:30 AM 41.9°F5.5°C 39.5°F4.2°C 91% Calm Calm -- 30.30 in1026.1 mb 0.00 in0.0 mm 0.00 in0.0 mm 0.00 in0.0 mm
08:45 AM 42.1°F5.6°C 39.6°F4.2°C 91% 0.1 mph NE0.2 kmh NE 0.7 mph1.1 kmh 30.31 in1026.4 mb 0.00 in0.0 mm 0.00 in0.0 mm 0.00 in0.0 mm
09:00 AM 42.4°F5.8°C 40.3°F4.6°C 92% Calm Calm -- 30.31 in1026.4 mb 0.00 in0.0 mm 0.00 in0.0 mm 0.00 in0.0 mm
09:15 AM 42.8°F6.0°C 40.4°F4.7°C 91% Calm Calm -- 30.31 in1026.4 mb 0.00 in0.0 mm 0.00 in0.0 mm 0.00 in0.0 mm
09:30 AM 43.0°F6.1°C 40.5°F4.7°C 91% Calm Calm -- 30.31 in1026.4 mb 0.00 in0.0 mm 0.00 in0.0 mm 0.00 in0.0 mm
09:45 AM 43.3°F6.3°C 40.9°F4.9°C 91% Calm Calm -- 30.32 in1026.8 mb 0.00 in0.0 mm 0.00 in0.0 mm 0.00 in0.0 mm
10:00 AM 43.5°F6.4°C 41.1°F5.1°C 91% Calm Calm -- 30.32 in1026.8 mb 0.00 in0.0 mm 0.00 in0.0 mm 0.00 in0.0 mm
10:15 AM 43.7°F6.5°C 41.5°F5.3°C 92% 0.6 mph SW1.0 kmh SW 1.6 mph2.6 kmh 30.32 in1026.8 mb 0.00 in0.0 mm 0.00 in0.0 mm 0.00 in0.0 mm
10:30 AM 43.9°F6.6°C 41.7°F5.4°C 92% 0.4 mph SSE0.6 kmh SSE 2.2 mph3.5 kmh 30.32 in1026.8 mb 0.00 in0.0 mm 0.00 in0.0 mm 0.00 in0.0 mm
10:45 AM 43.9°F6.6°C 41.7°F5.4°C 92% 0.6 mph S1.0 kmh S 1.6 mph2.6 kmh 30.31 in1026.4 mb 0.00 in0.0 mm 0.00 in0.0 mm 0.00 in0.0 mm
11:00 AM 44.1°F6.7°C 41.9°F5.5°C 92% 1.3 mph SE2.1 kmh SE 2.2 mph3.5 kmh 30.31 in1026.4 mb 0.00 in0.0 mm 0.00 in0.0 mm 0.00 in0.0 mm
11:15 AM 44.4°F6.9°C 42.2°F5.7°C 92% 2.4 mph SSE3.9 kmh SSE 3.1 mph5.0 kmh 30.31 in1026.4 mb 0.00 in0.0 mm 0.00 in0.0 mm 0.00 in0.0 mm
11:30 AM 44.8°F7.1°C 42.3°F5.7°C 91% 1.8 mph SE2.9 kmh SE 3.8 mph6.1 kmh 30.30 in1026.1 mb 0.00 in0.0 mm 0.00 in0.0 mm 0.00 in0.0 mm
11:45 AM 45.1°F7.3°C 42.7°F5.9°C 91% 2.4 mph S3.9 kmh S 3.8 mph6.1 kmh 30.30 in1026.1 mb 0.00 in0.0 mm 0.00 in0.0 mm 0.00 in0.0 mm
12:00 PM 45.5°F7.5°C 43.0°F6.1°C 91% 2.9 mph SSE4.7 kmh SSE 4.5 mph7.2 kmh 30.29 in1025.7 mb 0.00 in0.0 mm 0.00 in0.0 mm 0.00 in0.0 mm
12:15 PM 45.5°F7.5°C 42.7°F5.9°C 90% 3.4 mph SSE5.5 kmh SSE 5.4 mph8.7 kmh 30.29 in1025.7 mb 0.00 in0.0 mm 0.00 in0.0 mm 0.00 in0.0 mm
12:30 PM 45.5°F7.5°C 42.5°F5.8°C 89% 3.3 mph SE5.3 kmh SE 4.5 mph7.2 kmh 30.29 in1025.7 mb 0.00 in0.0 mm 0.00 in0.0 mm 0.00 in0.0 mm
12:45 PM 45.5°F7.5°C 42.5°F5.8°C 89% 3.8 mph S6.1 kmh S 5.4 mph8.7 kmh 30.29 in1025.7 mb 0.00 in0.0 mm 0.00 in0.0 mm 0.00 in0.0 mm
01:00 PM 45.3°F7.4°C 42.0°F5.6°C 88% 3.0 mph SSE4.8 kmh SSE 4.5 mph7.2 kmh 30.28 in1025.4 mb 0.00 in0.0 mm 0.00 in0.0 mm 0.00 in0.0 mm
01:15 PM 45.1°F7.3°C 42.1°F5.6°C 89% 5.6 mph SE9.0 kmh SE 6.9 mph11.1 kmh 30.27 in1025.1 mb 0.00 in0.0 mm 0.00 in0.0 mm 0.00 in0.0 mm
01:30 PM 45.1°F7.3°C 42.1°F5.6°C 89% 4.4 mph SE7.1 kmh SE 6.9 mph11.1 kmh 30.27 in1025.1 mb 0.00 in0.0 mm 0.00 in0.0 mm 0.00 in0.0 mm
01:45 PM 45.0°F7.2°C 41.9°F5.5°C 89% 4.3 mph S6.9 kmh S 7.6 mph12.2 kmh 30.27 in1025.1 mb 0.00 in0.0 mm 0.00 in0.0 mm 0.00 in0.0 mm
02:00 PM 45.0°F7.2°C 41.9°F5.5°C 89% 2.1 mph S3.4 kmh S 3.1 mph5.0 kmh 30.27 in1025.1 mb 0.01 in0.3 mm 0.01 in0.3 mm 0.01 in0.3 mm
02:15 PM 45.0°F7.2°C 41.9°F5.5°C 89% 2.2 mph SSE3.5 kmh SSE 3.1 mph5.0 kmh 30.27 in1025.1 mb 0.01 in0.3 mm 0.00 in0.0 mm 0.01 in0.3 mm
02:30 PM 45.0°F7.2°C 41.9°F5.5°C 89% 2.9 mph S4.7 kmh S 4.5 mph7.2 kmh 30.26 in1024.7 mb 0.01 in0.3 mm 0.00 in0.0 mm 0.01 in0.3 mm
02:45 PM 44.8°F7.1°C 42.0°F5.6°C 90% 3.4 mph SSE5.5 kmh SSE 4.5 mph7.2 kmh 30.26 in1024.7 mb 0.01 in0.3 mm 0.00 in0.0 mm 0.01 in0.3 mm
03:00 PM 44.8°F7.1°C 42.0°F5.6°C 90% 2.7 mph SSE4.3 kmh SSE 4.5 mph7.2 kmh 30.26 in1024.7 mb 0.00 in0.0 mm 0.00 in0.0 mm 0.01 in0.3 mm
03:15 PM 44.6°F7.0°C 41.9°F5.5°C 90% 3.4 mph SSE5.5 kmh SSE 5.4 mph8.7 kmh 30.25 in1024.4 mb 0.00 in0.0 mm 0.00 in0.0 mm 0.01 in0.3 mm
03:30 PM 44.6°F7.0°C 41.9°F5.5°C 90% 3.0 mph SSE4.8 kmh SSE 4.5 mph7.2 kmh 30.25 in1024.4 mb 0.00 in0.0 mm 0.00 in0.0 mm 0.01 in0.3 mm
03:45 PM 44.4°F6.9°C 42.0°F5.6°C 91% 2.7 mph SE4.3 kmh SE 5.4 mph8.7 kmh 30.25 in1024.4 mb 0.00 in0.0 mm 0.00 in0.0 mm 0.01 in0.3 mm
04:00 PM 44.4°F6.9°C 42.0°F5.6°C 91% 2.4 mph SE3.9 kmh SE 4.5 mph7.2 kmh 30.25 in1024.4 mb 0.00 in0.0 mm 0.00 in0.0 mm 0.01 in0.3 mm
04:15 PM 44.4°F6.9°C 42.0°F5.6°C 91% 3.4 mph S5.5 kmh S 4.5 mph7.2 kmh 30.24 in1024.0 mb 0.00 in0.0 mm 0.00 in0.0 mm 0.01 in0.3 mm
04:30 PM 44.2°F6.8°C 41.5°F5.3°C 90% 3.7 mph SE6.0 kmh SE 4.5 mph7.2 kmh 30.24 in1024.0 mb 0.00 in0.0 mm 0.00 in0.0 mm 0.01 in0.3 mm
04:45 PM 44.1°F6.7°C 41.3°F5.2°C 90% 3.8 mph SE6.1 kmh SE 6.9 mph11.1 kmh 30.23 in1023.7 mb 0.00 in0.0 mm 0.00 in0.0 mm 0.01 in0.3 mm
05:00 PM 43.9°F6.6°C 41.1°F5.1°C 90% 2.9 mph SSE4.7 kmh SSE 4.5 mph7.2 kmh 30.24 in1024.0 mb 0.00 in0.0 mm 0.00 in0.0 mm 0.01 in0.3 mm
05:15 PM 43.7°F6.5°C 41.0°F5.0°C 90% 2.3 mph SE3.7 kmh SE 4.5 mph7.2 kmh 30.24 in1024.0 mb 0.00 in0.0 mm 0.00 in0.0 mm 0.01 in0.3 mm
05:30 PM 43.7°F6.5°C 41.0°F5.0°C 90% 1.9 mph SSE3.1 kmh SSE 3.1 mph5.0 kmh 30.24 in1024.0 mb 0.00 in0.0 mm 0.00 in0.0 mm 0.01 in0.3 mm
05:45 PM 43.5°F6.4°C 40.8°F4.9°C 90% 1.8 mph SSE2.9 kmh SSE 3.1 mph5.0 kmh 30.25 in1024.4 mb 0.00 in0.0 mm 0.00 in0.0 mm 0.01 in0.3 mm
06:00 PM 43.5°F6.4°C 40.8°F4.9°C 90% 3.1 mph SE5.0 kmh SE 5.4 mph8.7 kmh 30.24 in1024.0 mb 0.00 in0.0 mm 0.00 in0.0 mm 0.01 in0.3 mm
06:15 PM 43.5°F6.4°C 40.8°F4.9°C 90% 3.5 mph SSE5.6 kmh SSE 5.4 mph8.7 kmh 30.24 in1024.0 mb 0.00 in0.0 mm 0.00 in0.0 mm 0.01 in0.3 mm
06:30 PM 43.7°F6.5°C 41.0°F5.0°C 90% 4.4 mph SSE7.1 kmh SSE 6.9 mph11.1 kmh 30.24 in1024.0 mb 0.00 in0.0 mm 0.00 in0.0 mm 0.01 in0.3 mm
06:45 PM 43.7°F6.5°C 41.0°F5.0°C 90% 4.0 mph SSE6.4 kmh SSE 6.9 mph11.1 kmh 30.24 in1024.0 mb 0.00 in0.0 mm 0.00 in0.0 mm 0.01 in0.3 mm
07:00 PM 43.7°F6.5°C 41.0°F5.0°C 90% 5.9 mph SSE9.5 kmh SSE 9.2 mph14.8 kmh 30.24 in1024.0 mb 0.00 in0.0 mm 0.00 in0.0 mm 0.01 in0.3 mm
07:15 PM 43.7°F6.5°C 41.0°F5.0°C 90% 5.6 mph SSE9.0 kmh SSE 9.2 mph14.8 kmh 30.24 in1024.0 mb 0.00 in0.0 mm 0.00 in0.0 mm 0.01 in0.3 mm
07:30 PM 43.7°F6.5°C 40.7°F4.8°C 89% 4.6 mph SSE7.4 kmh SSE 6.0 mph9.7 kmh 30.24 in1024.0 mb 0.00 in0.0 mm 0.00 in0.0 mm 0.01 in0.3 mm
07:45 PM 43.5°F6.4°C 40.5°F4.7°C 89% 5.0 mph S8.0 kmh S 7.6 mph12.2 kmh 30.24 in1024.0 mb 0.00 in0.0 mm 0.00 in0.0 mm 0.01 in0.3 mm
08:00 PM 43.3°F6.3°C 40.3°F4.6°C 89% 5.7 mph S9.2 kmh S 7.6 mph12.2 kmh 30.24 in1024.0 mb 0.00 in0.0 mm 0.00 in0.0 mm 0.01 in0.3 mm
08:15 PM 43.2°F6.2°C 39.9°F4.4°C 88% 6.4 mph SSE10.3 kmh SSE 11.4 mph18.3 kmh 30.24 in1024.0 mb 0.00 in0.0 mm 0.00 in0.0 mm 0.01 in0.3 mm
08:30 PM 43.0°F6.1°C 39.4°F4.1°C 87% 6.6 mph SE10.6 kmh SE 9.2 mph14.8 kmh 30.24 in1024.0 mb 0.00 in0.0 mm 0.00 in0.0 mm 0.01 in0.3 mm
08:45 PM 42.8°F6.0°C 38.9°F3.8°C 86% 5.9 mph SSE9.5 kmh SSE 13.0 mph20.9 kmh 30.24 in1024.0 mb 0.00 in0.0 mm 0.00 in0.0 mm 0.01 in0.3 mm
09:00 PM 42.6°F5.9°C 39.0°F3.9°C 87% 5.7 mph SE9.2 kmh SE 7.6 mph12.2 kmh 30.24 in1024.0 mb 0.00 in0.0 mm 0.00 in0.0 mm 0.01 in0.3 mm
09:15 PM 42.6°F5.9°C 38.7°F3.7°C 86% 6.3 mph SSE10.1 kmh SSE 9.2 mph14.8 kmh 30.24 in1024.0 mb 0.00 in0.0 mm 0.00 in0.0 mm 0.01 in0.3 mm
09:30 PM 42.6°F5.9°C 38.7°F3.7°C 86% 5.7 mph SSE9.2 kmh SSE 6.9 mph11.1 kmh 30.24 in1024.0 mb 0.00 in0.0 mm 0.00 in0.0 mm 0.01 in0.3 mm
09:45 PM 42.6°F5.9°C 38.4°F3.6°C 85% 6.4 mph SE10.3 kmh SE 9.2 mph14.8 kmh 30.23 in1023.7 mb 0.00 in0.0 mm 0.00 in0.0 mm 0.01 in0.3 mm
10:00 PM 42.6°F5.9°C 38.4°F3.6°C 85% 5.2 mph SSE8.4 kmh SSE 8.3 mph13.4 kmh 30.22 in1023.4 mb 0.00 in0.0 mm 0.00 in0.0 mm 0.01 in0.3 mm
10:15 PM 42.6°F5.9°C 38.4°F3.6°C 85% 4.4 mph S7.1 kmh S 6.9 mph11.1 kmh 30.22 in1023.4 mb 0.01 in0.3 mm 0.04 in1.0 mm 0.02 in0.5 mm
10:30 PM 42.6°F5.9°C 38.4°F3.6°C 85% 4.5 mph SE7.2 kmh SE 8.3 mph13.4 kmh 30.22 in1023.4 mb 0.01 in0.3 mm 0.00 in0.0 mm 0.02 in0.5 mm
10:45 PM 42.6°F5.9°C 38.4°F3.6°C 85% 4.8 mph SSE7.7 kmh SSE 7.6 mph12.2 kmh 30.22 in1023.4 mb 0.01 in0.3 mm 0.00 in0.0 mm 0.02 in0.5 mm
11:00 PM 42.4°F5.8°C 38.3°F3.5°C 85% 4.7 mph SE7.6 kmh SE 5.4 mph8.7 kmh 30.21 in1023.0 mb 0.01 in0.3 mm 0.00 in0.0 mm 0.02 in0.5 mm
11:15 PM 42.4°F5.8°C 38.3°F3.5°C 85% 5.0 mph SE8.0 kmh SE 8.3 mph13.4 kmh 30.21 in1023.0 mb 0.00 in0.0 mm 0.00 in0.0 mm 0.02 in0.5 mm
11:30 PM 42.4°F5.8°C 38.0°F3.3°C 84% 5.3 mph SSE8.5 kmh SSE 8.3 mph13.4 kmh 30.21 in1023.0 mb 0.00 in0.0 mm 0.00 in0.0 mm 0.02 in0.5 mm
11:45 PM 42.4°F5.8°C 38.3°F3.5°C 85% 5.0 mph SE8.0 kmh SE 8.3 mph13.4 kmh 30.20 in1022.7 mb 0.00 in0.0 mm 0.00 in0.0 mm 0.02 in0.5 mm